Latest Weather Observations for Deniliquin

IDN60801

Issued at 1:35 pm EDT Wednesday 22 October 2014 (issued every 30 minutes, with the page automatically refreshed every 10 minutes)

About weather observations | Map of weather stations | Latest weather observations for NSW | Other Formats
Station Details ID: 074258 Name: DENILIQUIN AIRPORT AWS Lat: -35.56 Lon: 144.95 Height: 94.0 m
Data from the previous 72 hours. | See also: Recent months at Deniliquin
Date/Time
EDT
Temp
°C
App
Temp
°C
Dew
Point
Rel
Hum
%
Delta-T
°C
Wind Press
QNH
hPa
Press
MSL
hPa
Rain
since 9 am
mm
Dir
 
Spd
km/h
Gust
km/h
Spd
kts
Gust
kts
22/01:30pm 29.5 25.1 9.1 28 11.4 ENE 22 33 12 18 1017.8 1017.7 0.0
22/01:00pm 28.7 24.4 9.4 30 10.8 NE 22 30 12 16 1018.2 1018.1 0.0
22/12:30pm 27.5 23.5 8.9 31 10.2 NE 20 33 11 18 1018.8 1018.7 0.0
22/12:00pm 27.6 23.7 9.4 32 10.1 ENE 20 30 11 16 1019.3 1019.2 0.0
22/11:30am 26.2 22.5 10.0 36 9.0 ENE 20 30 11 16 1019.8 1019.7 0.0
22/11:00am 24.6 20.0 9.7 39 8.2 ENE 24 33 13 18 1020.0 1019.9 0.0
22/10:30am 23.5 19.9 10.6 44 7.2 NE 20 30 11 16 1020.5 1020.4 0.0
22/10:00am 21.5 16.5 9.7 47 6.4 ENE 26 37 14 20 1020.5 1020.4 0.0
22/09:30am 20.1 14.9 10.2 53 5.4 ENE 28 35 15 19 1020.5 1020.4 0.0
22/09:00am 18.7 14.4 9.5 55 4.9 ENE 22 33 12 18 1020.6 1020.5 0.8
22/08:30am 18.6 14.8 9.9 57 4.6 ENE 20 28 11 15 1021.0 1020.9 0.8
22/08:00am 16.7 12.5 9.9 64 3.6 ENE 22 30 12 16 1021.0 1020.9 0.8
22/07:30am 15.5 12.5 9.4 67 3.2 ENE 15 20 8 11 1021.2 1021.1 0.8
22/07:00am 14.3 10.9 9.1 71 2.7 ENE 17 22 9 12 1020.8 1020.7 0.8
22/06:30am 14.0 10.9 8.8 71 2.6 ENE 15 20 8 11 1020.7 1020.6 0.8
22/06:00am 14.4 11.3 9.0 70 2.7 ENE 15 22 8 12 1020.6 1020.5 0.8
22/05:30am 14.6 10.8 9.0 69 2.9 ENE 19 26 10 14 1020.3 1020.2 0.8
22/05:00am 15.1 11.7 9.0 67 3.1 ENE 17 24 9 13 1020.3 1020.2 0.8
22/04:30am 15.3 11.9 9.2 67 3.1 ENE 17 24 9 13 1020.5 1020.4 0.8
22/04:00am 15.5 12.2 9.4 67 3.2 ENE 17 22 9 12 1020.5 1020.4 0.8
22/03:30am 15.8 12.1 9.5 66 3.3 ENE 19 24 10 13 1020.7 1020.6 0.8
22/03:00am 16.1 12.9 9.8 66 3.3 ENE 17 20 9 11 1020.8 1020.7 0.8
22/02:30am 16.4 13.2 9.8 65 3.5 ENE 17 22 9 12 1021.0 1020.9 0.8
22/02:00am 16.6 13.7 9.8 64 3.6 ENE 15 19 8 10 1021.3 1021.2 0.8
22/01:30am 17.1 14.3 10.0 63 3.8 ENE 15 19 8 10 1021.4 1021.3 0.8
22/01:00am 18.0 14.5 10.1 60 4.2 ENE 19 24 10 13 1021.5 1021.4 0.8
22/12:30am 17.4 14.5 9.6 60 4.1 E 15 19 8 10 1021.8 1021.7 0.8
22/12:00am 19.1 15.4 9.3 53 5.2 ENE 19 24 10 13 1022.0 1021.9 0.8
 
Date/Time
EDT
Temp
°C
App
Temp
°C
Dew
Point
Rel
Hum
%
Delta-T
°C
Wind Press
QNH
hPa
Press
MSL
hPa
Rain
since 9 am
mm
Dir
 
Spd
km/h
Gust
km/h
Spd
kts
Gust
kts
21/11:30pm 20.0 15.9 8.7 48 5.9 E 20 24 11 13 1021.9 1021.8 0.8
21/11:00pm 21.3 16.8 8.6 44 6.7 E 22 32 12 17 1022.0 1021.9 0.8
21/10:30pm 17.6 14.8 8.7 56 4.6 E 13 17 7 9 1022.4 1022.3 0.8
21/10:00pm 18.3 15.8 8.3 52 5.1 E 11 13 6 7 1022.5 1022.4 0.8
21/09:30pm 19.7 17.6 8.4 48 5.9 E 9 11 5 6 1022.5 1022.4 0.8
21/09:00pm 20.0 17.8 8.0 46 6.2 E 9 11 5 6 1022.2 1022.1 0.8
21/08:30pm 20.9 18.6 7.5 42 6.9 ESE 9 11 5 6 1022.1 1022.0 0.8
21/08:00pm 22.7 20.5 7.7 38 7.8 ESE 9 11 5 6 1021.9 1021.8 0.8
21/07:30pm 24.8 21.6 7.0 32 9.3 ESE 13 15 7 8 1021.7 1021.6 0.8
21/07:00pm 27.7 24.0 4.7 23 11.7 ENE 13 17 7 9 1021.5 1021.4 0.8
21/06:30pm 28.5 25.0 5.4 23 12.0 ENE 13 19 7 10 1021.5 1021.4 0.8
21/06:00pm 28.4 25.0 5.9 24 11.8 NE 13 19 7 10 1021.5 1021.4 0.8
21/05:30pm 28.3 24.1 5.8 24 11.8 ENE 17 20 9 11 1021.4 1021.3 0.8
21/05:00pm 29.1 25.4 6.5 24 12.0 NE 15 22 8 12 1021.7 1021.6 0.8
21/04:30pm 28.3 25.0 6.4 25 11.6 NE 13 20 7 11 1021.9 1021.8 0.8
21/04:00pm 28.1 24.5 6.8 26 11.3 ENE 15 26 8 14 1022.0 1021.9 0.8
21/03:30pm 28.9 25.6 8.0 27 11.4 E 15 24 8 13 1022.5 1022.4 0.8
21/03:00pm 28.4 25.0 7.6 27 11.2 E 15 24 8 13 1023.0 1022.9 0.0
21/02:30pm 28.3 25.1 8.6 29 10.8 NNE 15 20 8 11 1023.5 1023.4 0.0
21/02:00pm 27.4 24.3 8.8 31 10.2 E 15 22 8 12 1023.9 1023.8 0.0
21/01:30pm 26.4 22.8 8.4 32 9.8 ENE 17 26 9 14 1024.4 1024.3 0.0
21/01:00pm 25.1 20.9 8.1 34 9.1 NE 20 32 11 17 1024.7 1024.7 0.0
21/12:30pm 24.6 20.4 8.1 35 8.8 ENE 20 24 11 13 1025.1 1025.1 0.0
21/12:00pm 24.0 19.6 8.8 38 8.2 ENE 22 32 12 17 1025.4 1025.4 0.0
21/11:30am 23.1 18.7 9.1 41 7.6 ENE 22 30 12 16 1025.9 1025.9 0.0
21/11:00am 21.9 16.8 9.1 44 6.8 ENE 26 37 14 20 1026.0 1026.0 0.0
21/10:30am 21.1 16.3 9.0 46 6.4 ENE 24 33 13 18 1026.2 1026.2 0.0
21/10:00am 19.6 14.0 8.6 49 5.7 NE 28 35 15 19 1026.3 1026.3 0.0
21/09:30am 18.0 12.6 8.0 52 5.1 ENE 26 35 14 19 1026.3 1026.3 0.0
21/09:00am 16.6 10.4 7.8 56 4.4 ENE 30 37 16 20 1026.1 1026.1 0.0
21/08:30am 15.4 10.4 7.9 61 3.8 ENE 24 33 13 18 1026.0 1026.0 0.0
21/08:00am 13.8 9.5 7.8 67 3.0 ENE 20 28 11 15 1026.0 1026.0 0.0
21/07:30am 12.7 8.9 7.4 70 2.6 E 17 24 9 13 1025.8 1025.8 0.0
21/07:00am 11.7 7.8 7.2 74 2.2 ENE 17 22 9 12 1025.5 1025.5 0.0
21/06:30am 11.1 7.2 7.0 76 2.0 E 17 20 9 11 1025.2 1025.2 0.0
21/06:00am 11.4 7.5 7.1 75 2.1 E 17 22 9 12 1025.0 1025.0 0.0
21/05:30am 11.6 7.7 7.1 74 2.2 E 17 20 9 11 1024.7 1024.7 0.0
21/05:00am 12.3 8.1 7.4 72 2.4 E 19 26 10 14 1024.6 1024.6 0.0
21/04:30am 12.8 8.4 7.3 69 2.7 ENE 20 26 11 14 1024.4 1024.3 0.0
21/04:00am 12.5 8.7 7.4 71 2.5 E 17 20 9 11 1024.2 1024.1 0.0
21/03:30am 12.2 9.1 7.3 72 2.4 E 13 17 7 9 1024.2 1024.1 0.0
21/03:00am 11.9 8.6 6.6 70 2.5 E 13 17 7 9 1024.2 1024.1 0.0
21/02:30am 10.4 6.9 5.4 71 2.3 ESE 13 15 7 8 1024.2 1024.1 0.0
21/02:00am 11.7 7.9 5.8 67 2.7 ESE 15 19 8 10 1024.3 1024.2 0.0
21/01:30am 10.8 7.3 5.3 69 2.5 SE 13 15 7 8 1024.5 1024.4 0.0
21/01:00am 11.1 7.9 5.0 66 2.8 SSE 11 13 6 7 1024.6 1024.6 0.0
21/12:30am 11.1 8.3 5.0 66 2.8 SSE 9 11 5 6 1024.3 1024.2 0.0
21/12:00am 10.6 8.0 4.3 65 2.8 SSW 7 9 4 5 1024.4 1024.3 0.0
 
Date/Time
EDT
Temp
°C
App
Temp
°C
Dew
Point
Rel
Hum
%
Delta-T
°C
Wind Press
QNH
hPa
Press
MSL
hPa
Rain
since 9 am
mm
Dir
 
Spd
km/h
Gust
km/h
Spd
kts
Gust
kts
20/11:30pm 11.3 8.8 4.7 64 3.0 SSW 7 9 4 5 1024.6 1024.6 0.0
20/11:00pm 11.4 8.4 4.2 61 3.2 SW 9 13 5 7 1024.6 1024.6 0.0
20/10:30pm 12.2 8.8 3.9 57 3.7 SSW 11 13 6 7 1024.5 1024.4 0.0
20/10:00pm 13.5 9.7 4.1 53 4.3 SSW 13 15 7 8 1024.5 1024.4 0.0
20/09:30pm 13.6 9.8 3.7 51 4.5 SSW 13 15 7 8 1024.4 1024.3 0.0
20/09:00pm 15.0 11.2 3.8 47 5.1 SSW 13 17 7 9 1024.1 1024.0 0.0
20/08:30pm 15.9 11.9 2.7 41 6.0 SSW 13 15 7 8 1023.7 1023.6 0.0
20/08:00pm 18.4 13.9 1.9 33 7.5 S 15 17 8 9 1023.3 1023.2 0.0
20/07:30pm 20.9 16.6 1.2 27 9.0 SSW 13 17 7 9 1023.1 1023.0 0.0
20/07:00pm 23.5 18.9 1.8 24 10.2 S 15 17 8 9 1022.7 1022.6 0.0
20/06:30pm 25.1 20.6 1.9 22 11.1 S 15 19 8 10 1022.4 1022.3 0.0
20/06:00pm 25.6 20.7 2.3 22 11.2 S 17 24 9 13 1022.4 1022.3 0.0
20/05:30pm 25.8 20.7 3.1 23 11.2 SSW 19 26 10 14 1022.5 1022.4 0.0
20/05:00pm 26.3 22.1 5.8 27 10.6 S 17 24 9 13 1022.5 1022.4 0.0
20/04:30pm 26.2 21.5 5.2 26 10.8 S 19 24 10 13 1022.6 1022.5 0.0
20/04:00pm 26.1 21.3 5.7 27 10.5 S 20 30 11 16 1022.7 1022.6 0.0
20/03:30pm 27.4 23.2 5.6 25 11.3 SW 17 26 9 14 1022.8 1022.7 0.0
20/03:00pm 27.2 22.7 6.0 26 11.0 SW 19 33 10 18 1023.0 1022.9 0.0
20/02:30pm 26.9 22.8 6.3 27 10.8 SW 17 22 9 12 1023.3 1023.2 0.0
20/02:00pm 25.7 22.0 6.3 29 10.1 SSW 15 22 8 12 1023.7 1023.6 0.0
20/01:30pm 24.7 20.6 6.4 31 9.5 SW 17 22 9 12 1024.2 1024.1 0.0
20/01:00pm 24.6 22.0 7.7 34 8.9 S 11 19 6 10 1024.4 1024.3 0.0
20/12:30pm 23.8 21.5 7.4 35 8.6 SSW 9 17 5 9 1024.7 1024.7 0.0
20/12:00pm 22.7 19.6 7.3 37 8.0 SSW 13 20 7 11 1025.1 1025.1 0.0
20/11:30am 22.1 19.9 7.9 40 7.5 SSW 9 19 5 10 1025.3 1025.3 0.0
20/11:00am 20.2 17.1 7.2 43 6.6 SSE 13 19 7 10 1025.6 1025.6 0.0
20/10:30am 19.6 16.3 8.0 47 6.0 S 15 20 8 11 1025.6 1025.6 0.0
20/10:00am 17.8 13.9 7.2 50 5.3 S 17 24 9 13 1025.7 1025.7 0.0
20/09:30am 17.1 12.9 7.5 53 4.8 S 19 24 10 13 1025.6 1025.6 0.0
20/09:00am 15.5 10.6 7.0 57 4.2 S 22 30 12 16 1025.4 1025.4 0.0
20/08:30am 14.2 8.9 6.8 61 3.6 S 24 32 13 17 1025.1 1025.1 0.0
20/08:00am 13.1 8.2 6.9 66 3.0 S 22 32 12 17 1025.1 1025.1 0.0
20/07:30am 12.3 9.2 7.2 71 2.5 S 13 19 7 10 1024.7 1024.7 0.0
20/07:00am 11.3 8.2 7.2 76 2.0 S 13 17 7 9 1024.3 1024.2 0.0
20/06:30am 11.4 8.3 7.1 75 2.1 S 13 17 7 9 1023.9 1023.8 0.0
20/06:00am 11.9 8.4 7.2 73 2.3 S 15 19 8 10 1023.6 1023.5 0.0
20/05:30am 12.5 8.7 7.6 72 2.4 S 17 24 9 13 1023.2 1023.1 0.0
20/05:00am 12.8 8.6 7.5 70 2.6 S 19 26 10 14 1022.9 1022.8 0.0
20/04:30am 13.2 8.5 7.6 69 2.8 S 22 30 12 16 1022.7 1022.6 0.0
20/04:00am 13.5 8.7 7.5 67 2.9 S 22 28 12 15 1022.5 1022.4 0.0
20/03:30am 13.7 8.2 7.7 67 3.0 S 26 35 14 19 1022.6 1022.5 0.0
20/03:00am 14.0 9.5 8.4 69 2.8 S 22 30 12 16 1022.6 1022.5 0.0
20/02:30am 13.7 10.5 8.5 71 2.6 S 15 19 8 10 1022.4 1022.3 0.0
20/02:00am 13.8 10.5 8.2 69 2.8 S 15 20 8 11 1022.5 1022.4 0.0
20/01:30am 15.4 11.0 8.9 65 3.3 S 22 30 12 16 1022.5 1022.4 0.0
20/01:00am 15.9 11.9 8.9 63 3.6 S 20 24 11 13 1022.5 1022.4 0.0
20/12:30am 16.8 12.0 9.0 60 4.0 S 24 33 13 18 1022.6 1022.5 0.0
20/12:00am 17.6 13.6 8.2 54 4.8 S 19 26 10 14 1022.5 1022.4 0.0
 
Date/Time
EDT
Temp
°C
App
Temp
°C
Dew
Point
Rel
Hum
%
Delta-T
°C
Wind Press
QNH
hPa
Press
MSL
hPa
Rain
since 9 am
mm
Dir
 
Spd
km/h
Gust
km/h
Spd
kts
Gust
kts
19/11:30pm 18.1 12.6 7.5 50 5.4 SSW 26 32 14 17 1022.2 1022.1 0.0
19/11:00pm 21.3 16.0 2.1 28 8.9 SW 19 30 10 16 1021.8 1021.7 0.0
19/10:30pm 20.4 17.7 3.6 33 8.0 N 7 9 4 5 1020.9 1020.8 0.0
19/10:00pm 20.6 17.8 2.9 31 8.3 N 7 9 4 5 1020.9 1020.8 0.0
19/09:30pm 21.2 18.4 3.0 30 8.6 N 7 9 4 5 1020.9 1020.8 0.0
19/09:00pm 21.3 18.1 1.0 26 9.3 N 7 9 4 5 1020.7 1020.6 0.0
19/08:30pm 22.4 19.4 2.0 26 9.6 NNW 7 11 4 6 1020.4 1020.3 0.0
19/08:00pm 23.4 20.2 0.5 22 10.5 W 7 9 4 5 1020.3 1020.2 0.0
19/07:30pm 25.0 20.6 0.5 20 11.4 W 13 15 7 8 1020.1 1020.0 0.0
19/07:00pm 27.5 24.1 1.8 19 12.5 W 9 11 5 6 1020.0 1019.9 0.0
19/06:30pm 29.4 24.2 -2.9 12 14.7 W 15 19 8 10 1019.7 1019.6 0.0
19/06:00pm 31.3 25.6 -3.9 10 15.9 WNW 17 24 9 13 1019.6 1019.5 0.0
19/05:30pm 31.7 26.3 -1.2 12 15.6 W 17 22 9 12 1019.6 1019.5 0.0
19/05:00pm 31.1 24.6 -5.5 9 16.0 NNW 20 28 11 15 1019.5 1019.4 0.0
19/04:30pm 31.1 24.8 -4.1 10 15.9 NW 20 30 11 16 1019.5 1019.4 0.0
19/04:00pm 31.3 24.5 -5.3 9 16.1 NW 22 32 12 17 1019.8 1019.7 0.0
19/03:30pm 31.3 25.1 -5.3 9 16.2 NW 19 22 10 12 1020.2 1020.1 0.0
19/03:00pm 31.4 24.7 -3.8 10 15.9 NW 22 33 12 18 1020.5 1020.4 0.0
19/02:30pm 32.0 25.8 -4.8 9 16.5 NW 19 32 10 17 1020.8 1020.7 0.0
19/02:00pm 31.4 24.8 -6.8 8 16.4 NNW 20 30 11 16 1021.2 1021.1 0.0

Other Formats:

Comma delimited format used in spreadsheet applications
http://www.bom.gov.au/fwo/IDN60801/IDN60801.95869.axf

JavaScript Object Notation format (JSON) in row-major order
http://www.bom.gov.au/fwo/IDN60801/IDN60801.95869.json